This is the latest recevied weather packets stored in our database for station/object SQ9RHX-13. If no packets are shown the sender has not sent any weather packets the latest 10 day(s).
| Time | Temp. | Humidity | Pressure | Rain* | Wind** | Luminosity | Snow |
|---|---|---|---|---|---|---|---|
| 1777467303 | 12.22° C | 27% | 1032.8 hPa | 0 mm | - | 182 W/m² | - |
| 1777467003 | 12.22° C | 27% | 1032.7 hPa | 0 mm | - | 646 W/m² | - |
| 1777466703 | 11.67° C | 29% | 1032.7 hPa | 0 mm | - | 609 W/m² | - |
| 1777466405 | 11.67° C | 28% | 1032.9 hPa | 0 mm | - | 607 W/m² | - |
| 1777466105 | 11.11° C | 28% | 1032.6 hPa | 0 mm | - | 605 W/m² | - |
| 1777465804 | 11.67° C | 27% | 1032.8 hPa | 0 mm | - | 144 W/m² | - |
| 1777465505 | 12.22° C | 27% | 1032.9 hPa | 0 mm | - | 697 W/m² | - |
| 1777465202 | 11.67° C | 29% | 1032.5 hPa | 0 mm | - | 638 W/m² | - |
| 1777464903 | 12.22° C | 28% | 1032.5 hPa | 0 mm | - | 632 W/m² | - |
| 1777464605 | 12.22° C | 26% | 1032.7 hPa | 0 mm | - | 622 W/m² | - |
| 1777464303 | 12.22° C | 26% | 1032.5 hPa | 0 mm | - | 621 W/m² | - |
| 1777464004 | 12.78° C | 25% | 1032.8 hPa | 0 mm | - | 621 W/m² | - |
| 1777463702 | 12.22° C | 26% | 1032.6 hPa | 0 mm | - | 628 W/m² | - |
| 1777463403 | 12.22° C | 26% | 1032.6 hPa | 0 mm | - | 632 W/m² | - |
| 1777463103 | 11.67° C | 27% | 1032.7 hPa | 0 mm | - | 639 W/m² | - |
| 1777462804 | 11.11° C | 25% | 1032.8 hPa | 0 mm | - | 646 W/m² | - |
| 1777462504 | 11.67° C | 26% | 1032.9 hPa | 0 mm | - | 649 W/m² | - |
| 1777462205 | 11.67° C | 24% | 1032.7 hPa | 0 mm | - | 651 W/m² | - |
| 1777461913 | 11.67° C | 26% | 1032.8 hPa | 0 mm | - | 655 W/m² | - |
| 1777461603 | 11.11° C | 25% | 1032.7 hPa | 0 mm | - | 658 W/m² | - |
| 1777461303 | 11.11° C | 26% | 1032.6 hPa | 0 mm | - | 662 W/m² | - |
| 1777461003 | 11.11° C | 27% | 1032.8 hPa | 0 mm | - | 664 W/m² | - |
| 1777460703 | 11.11° C | 26% | 1032.7 hPa | 0 mm | - | 667 W/m² | - |
| 1777460404 | 11.11° C | 26% | 1032.6 hPa | 0 mm | - | 666 W/m² | - |
| 1777460104 | 11.11° C | 28% | 1032.8 hPa | 0 mm | - | 668 W/m² | - |
* Rain latest hour (hover to see other rain measurements)
** Current wind speed in m/s (hover to see current wind gust speed)